sensor_id;sensor_type;location;lat;lon;timestamp;P1;durP1;ratioP1;P2;durP2;ratioP2
8421;SDS011;4248;48.196;10.924;2022-08-01T00:01:56;7.10;;;3.27;;
8421;SDS011;4248;48.196;10.924;2022-08-01T00:04:21;7.97;;;2.93;;
8421;SDS011;4248;48.196;10.924;2022-08-01T00:06:47;6.73;;;3.87;;
8421;SDS011;4248;48.196;10.924;2022-08-01T00:09:13;4.63;;;3.13;;
8421;SDS011;4248;48.196;10.924;2022-08-01T00:11:39;4.63;;;3.47;;
8421;SDS011;4248;48.196;10.924;2022-08-01T00:14:04;4.43;;;2.90;;
8421;SDS011;4248;48.196;10.924;2022-08-01T00:16:30;7.43;;;2.97;;
8421;SDS011;4248;48.196;10.924;2022-08-01T00:18:55;9.43;;;3.10;;
8421;SDS011;4248;48.196;10.924;2022-08-01T00:21:21;4.47;;;2.90;;
8421;SDS011;4248;48.196;10.924;2022-08-01T00:23:47;5.23;;;3.10;;
8421;SDS011;4248;48.196;10.924;2022-08-01T00:26:13;4.40;;;3.00;;
8421;SDS011;4248;48.196;10.924;2022-08-01T00:28:39;4.90;;;3.23;;
8421;SDS011;4248;48.196;10.924;2022-08-01T00:31:06;7.97;;;3.03;;
8421;SDS011;4248;48.196;10.924;2022-08-01T00:33:31;6.33;;;2.93;;
8421;SDS011;4248;48.196;10.924;2022-08-01T00:35:57;5.13;;;3.10;;
8421;SDS011;4248;48.196;10.924;2022-08-01T00:38:23;6.60;;;3.13;;
8421;SDS011;4248;48.196;10.924;2022-08-01T00:40:49;4.60;;;3.33;;
8421;SDS011;4248;48.196;10.924;2022-08-01T00:43:15;6.00;;;3.33;;
8421;SDS011;4248;48.196;10.924;2022-08-01T00:45:41;5.53;;;3.20;;
8421;SDS011;4248;48.196;10.924;2022-08-01T00:48:07;7.10;;;4.57;;
8421;SDS011;4248;48.196;10.924;2022-08-01T00:50:33;6.90;;;3.80;;
8421;SDS011;4248;48.196;10.924;2022-08-01T00:52:59;6.33;;;3.67;;
8421;SDS011;4248;48.196;10.924;2022-08-01T00:55:26;8.40;;;4.10;;
8421;SDS011;4248;48.196;10.924;2022-08-01T00:57:53;4.97;;;2.83;;
8421;SDS011;4248;48.196;10.924;2022-08-01T01:00:19;4.93;;;3.50;;
8421;SDS011;4248;48.196;10.924;2022-08-01T01:02:45;5.00;;;3.27;;
8421;SDS011;4248;48.196;10.924;2022-08-01T01:05:10;7.43;;;3.60;;
8421;SDS011;4248;48.196;10.924;2022-08-01T01:10:14;5.73;;;3.70;;
8421;SDS011;4248;48.196;10.924;2022-08-01T01:12:59;4.87;;;3.40;;
8421;SDS011;4248;48.196;10.924;2022-08-01T01:15:43;4.60;;;3.20;;
8421;SDS011;4248;48.196;10.924;2022-08-01T01:18:25;5.37;;;3.33;;
8421;SDS011;4248;48.196;10.924;2022-08-01T01:21:23;6.10;;;3.70;;
8421;SDS011;4248;48.196;10.924;2022-08-01T01:24:17;4.87;;;3.10;;
8421;SDS011;4248;48.196;10.924;2022-08-01T01:27:10;4.23;;;2.97;;
8421;SDS011;4248;48.196;10.924;2022-08-01T01:30:00;10.37;;;3.50;;
8421;SDS011;4248;48.196;10.924;2022-08-01T01:34:59;7.37;;;3.17;;
8421;SDS011;4248;48.196;10.924;2022-08-01T01:37:27;5.90;;;3.87;;
8421;SDS011;4248;48.196;10.924;2022-08-01T01:39:56;7.57;;;3.90;;
8421;SDS011;4248;48.196;10.924;2022-08-01T01:42:24;4.73;;;3.30;;
8421;SDS011;4248;48.196;10.924;2022-08-01T01:44:51;5.50;;;3.63;;
8421;SDS011;4248;48.196;10.924;2022-08-01T01:47:17;6.90;;;3.90;;
8421;SDS011;4248;48.196;10.924;2022-08-01T01:49:44;13.70;;;4.10;;
8421;SDS011;4248;48.196;10.924;2022-08-01T01:52:12;4.30;;;3.00;;
8421;SDS011;4248;48.196;10.924;2022-08-01T01:54:42;6.37;;;3.40;;
8421;SDS011;4248;48.196;10.924;2022-08-01T01:57:11;4.60;;;3.00;;
8421;SDS011;4248;48.196;10.924;2022-08-01T01:59:37;6.10;;;3.30;;
8421;SDS011;4248;48.196;10.924;2022-08-01T02:02:05;6.77;;;3.93;;
8421;SDS011;4248;48.196;10.924;2022-08-01T02:04:32;13.97;;;3.70;;
8421;SDS011;4248;48.196;10.924;2022-08-01T02:07:03;9.27;;;3.73;;
8421;SDS011;4248;48.196;10.924;2022-08-01T02:09:30;4.40;;;3.10;;
8421;SDS011;4248;48.196;10.924;2022-08-01T02:11:58;6.30;;;3.90;;
8421;SDS011;4248;48.196;10.924;2022-08-01T02:14:26;5.57;;;3.30;;
8421;SDS011;4248;48.196;10.924;2022-08-01T02:16:54;8.53;;;3.70;;
8421;SDS011;4248;48.196;10.924;2022-08-01T02:19:22;5.27;;;3.37;;
8421;SDS011;4248;48.196;10.924;2022-08-01T02:24:25;4.37;;;2.83;;
8421;SDS011;4248;48.196;10.924;2022-08-01T02:26:57;8.40;;;3.17;;
8421;SDS011;4248;48.196;10.924;2022-08-01T02:29:29;4.40;;;2.90;;
8421;SDS011;4248;48.196;10.924;2022-08-01T02:32:20;5.20;;;3.50;;
8421;SDS011;4248;48.196;10.924;2022-08-01T02:34:50;5.37;;;3.77;;
8421;SDS011;4248;48.196;10.924;2022-08-01T02:37:18;8.40;;;3.70;;
8421;SDS011;4248;48.196;10.924;2022-08-01T02:39:46;4.83;;;3.33;;
8421;SDS011;4248;48.196;10.924;2022-08-01T02:42:16;5.13;;;3.40;;
8421;SDS011;4248;48.196;10.924;2022-08-01T02:44:43;7.03;;;3.73;;
8421;SDS011;4248;48.196;10.924;2022-08-01T02:47:11;5.37;;;3.13;;
8421;SDS011;4248;48.196;10.924;2022-08-01T02:49:39;6.83;;;3.40;;
8421;SDS011;4248;48.196;10.924;2022-08-01T02:52:09;5.20;;;3.47;;
8421;SDS011;4248;48.196;10.924;2022-08-01T02:54:38;5.30;;;3.43;;
8421;SDS011;4248;48.196;10.924;2022-08-01T02:57:05;5.40;;;3.70;;
8421;SDS011;4248;48.196;10.924;2022-08-01T02:59:33;9.33;;;3.83;;
8421;SDS011;4248;48.196;10.924;2022-08-01T03:02:02;6.03;;;3.30;;
8421;SDS011;4248;48.196;10.924;2022-08-01T03:04:30;5.87;;;3.20;;
8421;SDS011;4248;48.196;10.924;2022-08-01T03:06:58;7.20;;;2.90;;
8421;SDS011;4248;48.196;10.924;2022-08-01T03:09:27;7.87;;;3.47;;
8421;SDS011;4248;48.196;10.924;2022-08-01T03:11:54;7.00;;;3.73;;
8421;SDS011;4248;48.196;10.924;2022-08-01T03:14:23;4.70;;;2.80;;
8421;SDS011;4248;48.196;10.924;2022-08-01T03:16:50;7.20;;;3.83;;
8421;SDS011;4248;48.196;10.924;2022-08-01T03:19:18;6.23;;;3.70;;
8421;SDS011;4248;48.196;10.924;2022-08-01T03:21:47;5.10;;;3.43;;
8421;SDS011;4248;48.196;10.924;2022-08-01T03:24:14;5.43;;;3.60;;
8421;SDS011;4248;48.196;10.924;2022-08-01T03:26:42;14.23;;;3.47;;
8421;SDS011;4248;48.196;10.924;2022-08-01T03:29:10;11.10;;;3.73;;
8421;SDS011;4248;48.196;10.924;2022-08-01T03:31:40;5.73;;;3.73;;
8421;SDS011;4248;48.196;10.924;2022-08-01T03:34:10;6.07;;;3.20;;
8421;SDS011;4248;48.196;10.924;2022-08-01T03:36:37;5.70;;;3.40;;
8421;SDS011;4248;48.196;10.924;2022-08-01T03:39:08;5.13;;;3.30;;
8421;SDS011;4248;48.196;10.924;2022-08-01T03:41:37;6.33;;;3.70;;
8421;SDS011;4248;48.196;10.924;2022-08-01T03:44:16;6.23;;;3.03;;
8421;SDS011;4248;48.196;10.924;2022-08-01T03:46:50;4.93;;;3.63;;
8421;SDS011;4248;48.196;10.924;2022-08-01T03:49:22;8.03;;;3.60;;
8421;SDS011;4248;48.196;10.924;2022-08-01T03:51:50;5.63;;;3.70;;
8421;SDS011;4248;48.196;10.924;2022-08-01T03:54:23;8.50;;;3.70;;
8421;SDS011;4248;48.196;10.924;2022-08-01T03:56:50;10.43;;;3.87;;
8421;SDS011;4248;48.196;10.924;2022-08-01T03:59:16;7.17;;;3.60;;
8421;SDS011;4248;48.196;10.924;2022-08-01T04:01:43;6.00;;;3.50;;
8421;SDS011;4248;48.196;10.924;2022-08-01T04:04:10;7.43;;;3.90;;
8421;SDS011;4248;48.196;10.924;2022-08-01T04:06:38;6.70;;;3.30;;
8421;SDS011;4248;48.196;10.924;2022-08-01T04:09:04;4.50;;;3.13;;
8421;SDS011;4248;48.196;10.924;2022-08-01T04:11:30;8.00;;;3.23;;
8421;SDS011;4248;48.196;10.924;2022-08-01T04:13:56;5.33;;;3.33;;
8421;SDS011;4248;48.196;10.924;2022-08-01T04:16:22;7.13;;;3.30;;
8421;SDS011;4248;48.196;10.924;2022-08-01T04:18:48;5.47;;;3.43;;
8421;SDS011;4248;48.196;10.924;2022-08-01T04:21:14;5.63;;;3.50;;
8421;SDS011;4248;48.196;10.924;2022-08-01T04:23:45;7.20;;;3.33;;
8421;SDS011;4248;48.196;10.924;2022-08-01T04:26:12;7.63;;;3.23;;
8421;SDS011;4248;48.196;10.924;2022-08-01T04:28:40;6.00;;;3.87;;
8421;SDS011;4248;48.196;10.924;2022-08-01T04:31:08;9.83;;;3.73;;
8421;SDS011;4248;48.196;10.924;2022-08-01T04:33:34;5.97;;;3.10;;
8421;SDS011;4248;48.196;10.924;2022-08-01T04:36:03;7.37;;;3.70;;
8421;SDS011;4248;48.196;10.924;2022-08-01T04:38:31;4.90;;;2.93;;
8421;SDS011;4248;48.196;10.924;2022-08-01T04:41:01;6.87;;;2.97;;
8421;SDS011;4248;48.196;10.924;2022-08-01T04:43:27;4.00;;;2.77;;
8421;SDS011;4248;48.196;10.924;2022-08-01T04:45:53;6.73;;;3.70;;
8421;SDS011;4248;48.196;10.924;2022-08-01T04:48:20;5.53;;;3.20;;
8421;SDS011;4248;48.196;10.924;2022-08-01T04:50:46;6.63;;;3.00;;
8421;SDS011;4248;48.196;10.924;2022-08-01T04:53:16;7.93;;;3.10;;
8421;SDS011;4248;48.196;10.924;2022-08-01T04:55:43;4.30;;;3.17;;
8421;SDS011;4248;48.196;10.924;2022-08-01T04:58:10;5.00;;;3.30;;
8421;SDS011;4248;48.196;10.924;2022-08-01T05:00:36;4.97;;;2.70;;
8421;SDS011;4248;48.196;10.924;2022-08-01T05:03:02;5.57;;;3.07;;
8421;SDS011;4248;48.196;10.924;2022-08-01T05:05:28;5.60;;;3.00;;
8421;SDS011;4248;48.196;10.924;2022-08-01T05:07:55;6.67;;;3.20;;
8421;SDS011;4248;48.196;10.924;2022-08-01T05:10:21;4.70;;;3.00;;
8421;SDS011;4248;48.196;10.924;2022-08-01T05:12:47;6.30;;;3.13;;
8421;SDS011;4248;48.196;10.924;2022-08-01T05:15:13;7.33;;;3.40;;
8421;SDS011;4248;48.196;10.924;2022-08-01T05:17:38;13.20;;;3.10;;
8421;SDS011;4248;48.196;10.924;2022-08-01T05:20:05;8.23;;;3.77;;
8421;SDS011;4248;48.196;10.924;2022-08-01T05:22:33;4.33;;;2.80;;
8421;SDS011;4248;48.196;10.924;2022-08-01T05:24:59;4.50;;;2.80;;
8421;SDS011;4248;48.196;10.924;2022-08-01T05:27:25;4.53;;;2.40;;
8421;SDS011;4248;48.196;10.924;2022-08-01T05:29:51;5.10;;;2.93;;
8421;SDS011;4248;48.196;10.924;2022-08-01T05:32:17;6.93;;;3.13;;
8421;SDS011;4248;48.196;10.924;2022-08-01T05:34:43;6.70;;;2.73;;
8421;SDS011;4248;48.196;10.924;2022-08-01T05:37:09;7.17;;;2.70;;
8421;SDS011;4248;48.196;10.924;2022-08-01T05:39:35;4.60;;;2.50;;
8421;SDS011;4248;48.196;10.924;2022-08-01T05:42:01;4.90;;;3.10;;
8421;SDS011;4248;48.196;10.924;2022-08-01T05:44:27;4.60;;;2.77;;
8421;SDS011;4248;48.196;10.924;2022-08-01T05:46:53;6.40;;;2.53;;
8421;SDS011;4248;48.196;10.924;2022-08-01T05:49:19;5.63;;;2.20;;
8421;SDS011;4248;48.196;10.924;2022-08-01T05:51:44;3.70;;;2.80;;
8421;SDS011;4248;48.196;10.924;2022-08-01T05:54:10;8.10;;;2.70;;
8421;SDS011;4248;48.196;10.924;2022-08-01T05:56:36;4.70;;;2.47;;
8421;SDS011;4248;48.196;10.924;2022-08-01T05:59:02;4.77;;;2.70;;
8421;SDS011;4248;48.196;10.924;2022-08-01T06:01:28;5.40;;;3.00;;
8421;SDS011;4248;48.196;10.924;2022-08-01T06:03:54;5.80;;;2.27;;
8421;SDS011;4248;48.196;10.924;2022-08-01T06:06:21;5.13;;;2.40;;
8421;SDS011;4248;48.196;10.924;2022-08-01T06:08:47;8.30;;;2.40;;
8421;SDS011;4248;48.196;10.924;2022-08-01T06:11:13;4.60;;;2.77;;
8421;SDS011;4248;48.196;10.924;2022-08-01T06:13:41;4.00;;;2.87;;
8421;SDS011;4248;48.196;10.924;2022-08-01T06:16:07;6.80;;;2.83;;
8421;SDS011;4248;48.196;10.924;2022-08-01T06:18:34;8.73;;;2.47;;
8421;SDS011;4248;48.196;10.924;2022-08-01T06:21:00;6.47;;;2.50;;
8421;SDS011;4248;48.196;10.924;2022-08-01T06:23:26;6.43;;;2.67;;
8421;SDS011;4248;48.196;10.924;2022-08-01T06:25:52;4.00;;;2.57;;
8421;SDS011;4248;48.196;10.924;2022-08-01T06:28:19;5.67;;;2.87;;
8421;SDS011;4248;48.196;10.924;2022-08-01T06:30:45;4.83;;;2.63;;
8421;SDS011;4248;48.196;10.924;2022-08-01T06:33:11;5.20;;;2.63;;
8421;SDS011;4248;48.196;10.924;2022-08-01T06:35:37;7.27;;;2.97;;
8421;SDS011;4248;48.196;10.924;2022-08-01T06:38:03;4.80;;;2.50;;
8421;SDS011;4248;48.196;10.924;2022-08-01T06:40:28;3.77;;;2.33;;
8421;SDS011;4248;48.196;10.924;2022-08-01T06:42:54;4.60;;;2.80;;
8421;SDS011;4248;48.196;10.924;2022-08-01T06:45:20;4.80;;;3.10;;
8421;SDS011;4248;48.196;10.924;2022-08-01T06:47:47;4.77;;;2.57;;
8421;SDS011;4248;48.196;10.924;2022-08-01T06:50:13;7.10;;;2.60;;
8421;SDS011;4248;48.196;10.924;2022-08-01T06:52:39;4.47;;;2.97;;
8421;SDS011;4248;48.196;10.924;2022-08-01T06:55:06;10.33;;;2.97;;
8421;SDS011;4248;48.196;10.924;2022-08-01T06:57:32;6.70;;;2.70;;
8421;SDS011;4248;48.196;10.924;2022-08-01T06:59:57;4.20;;;2.23;;
8421;SDS011;4248;48.196;10.924;2022-08-01T07:02:27;5.13;;;2.60;;
8421;SDS011;4248;48.196;10.924;2022-08-01T07:04:53;5.33;;;3.00;;
8421;SDS011;4248;48.196;10.924;2022-08-01T07:07:19;4.70;;;3.10;;
8421;SDS011;4248;48.196;10.924;2022-08-01T07:09:45;3.70;;;2.40;;
8421;SDS011;4248;48.196;10.924;2022-08-01T07:12:11;6.33;;;3.20;;
8421;SDS011;4248;48.196;10.924;2022-08-01T07:14:37;3.73;;;2.27;;
8421;SDS011;4248;48.196;10.924;2022-08-01T07:17:03;5.30;;;2.67;;
8421;SDS011;4248;48.196;10.924;2022-08-01T07:19:28;6.10;;;2.60;;
8421;SDS011;4248;48.196;10.924;2022-08-01T07:21:54;9.53;;;2.87;;
8421;SDS011;4248;48.196;10.924;2022-08-01T07:24:20;4.87;;;2.67;;
8421;SDS011;4248;48.196;10.924;2022-08-01T07:26:47;4.63;;;2.77;;
8421;SDS011;4248;48.196;10.924;2022-08-01T07:29:13;3.80;;;2.50;;
8421;SDS011;4248;48.196;10.924;2022-08-01T07:31:39;5.20;;;2.80;;
8421;SDS011;4248;48.196;10.924;2022-08-01T07:34:05;6.23;;;2.80;;
8421;SDS011;4248;48.196;10.924;2022-08-01T07:36:31;7.60;;;2.63;;
8421;SDS011;4248;48.196;10.924;2022-08-01T07:38:57;4.60;;;2.63;;
8421;SDS011;4248;48.196;10.924;2022-08-01T07:41:23;4.20;;;2.50;;
8421;SDS011;4248;48.196;10.924;2022-08-01T07:43:49;5.90;;;2.53;;
8421;SDS011;4248;48.196;10.924;2022-08-01T07:46:15;5.17;;;2.73;;
8421;SDS011;4248;48.196;10.924;2022-08-01T07:48:41;4.83;;;2.90;;
8421;SDS011;4248;48.196;10.924;2022-08-01T07:51:07;6.30;;;3.00;;
8421;SDS011;4248;48.196;10.924;2022-08-01T07:53:37;3.87;;;2.53;;
8421;SDS011;4248;48.196;10.924;2022-08-01T07:56:03;6.50;;;3.00;;
8421;SDS011;4248;48.196;10.924;2022-08-01T07:58:31;5.60;;;2.30;;
8421;SDS011;4248;48.196;10.924;2022-08-01T08:00:57;6.83;;;2.93;;
8421;SDS011;4248;48.196;10.924;2022-08-01T08:03:23;5.37;;;3.07;;
8421;SDS011;4248;48.196;10.924;2022-08-01T08:05:48;4.20;;;2.53;;
8421;SDS011;4248;48.196;10.924;2022-08-01T08:08:14;5.60;;;3.43;;
8421;SDS011;4248;48.196;10.924;2022-08-01T08:10:42;4.20;;;2.60;;
8421;SDS011;4248;48.196;10.924;2022-08-01T08:13:08;5.63;;;2.77;;
8421;SDS011;4248;48.196;10.924;2022-08-01T08:15:34;12.30;;;3.20;;
8421;SDS011;4248;48.196;10.924;2022-08-01T08:18:00;4.30;;;2.47;;
8421;SDS011;4248;48.196;10.924;2022-08-01T08:20:26;3.83;;;2.47;;
8421;SDS011;4248;48.196;10.924;2022-08-01T08:22:54;7.37;;;3.37;;
8421;SDS011;4248;48.196;10.924;2022-08-01T08:25:20;4.70;;;2.60;;
8421;SDS011;4248;48.196;10.924;2022-08-01T08:27:46;5.63;;;2.83;;
8421;SDS011;4248;48.196;10.924;2022-08-01T08:30:13;4.97;;;2.70;;
8421;SDS011;4248;48.196;10.924;2022-08-01T08:32:39;4.47;;;2.50;;
8421;SDS011;4248;48.196;10.924;2022-08-01T08:35:06;6.63;;;3.00;;
8421;SDS011;4248;48.196;10.924;2022-08-01T08:37:32;4.97;;;2.87;;
8421;SDS011;4248;48.196;10.924;2022-08-01T08:40:05;6.40;;;3.27;;
8421;SDS011;4248;48.196;10.924;2022-08-01T08:42:31;4.07;;;2.70;;
8421;SDS011;4248;48.196;10.924;2022-08-01T08:44:57;4.50;;;2.70;;
8421;SDS011;4248;48.196;10.924;2022-08-01T08:47:23;10.00;;;2.63;;
8421;SDS011;4248;48.196;10.924;2022-08-01T08:49:51;4.70;;;2.63;;
8421;SDS011;4248;48.196;10.924;2022-08-01T08:52:19;4.50;;;2.43;;
8421;SDS011;4248;48.196;10.924;2022-08-01T08:54:46;3.30;;;2.20;;
8421;SDS011;4248;48.196;10.924;2022-08-01T08:57:14;5.77;;;2.53;;
8421;SDS011;4248;48.196;10.924;2022-08-01T08:59:40;8.97;;;3.07;;
8421;SDS011;4248;48.196;10.924;2022-08-01T09:02:08;7.70;;;2.80;;
8421;SDS011;4248;48.196;10.924;2022-08-01T09:04:35;3.67;;;2.43;;
8421;SDS011;4248;48.196;10.924;2022-08-01T09:07:03;5.00;;;2.50;;
8421;SDS011;4248;48.196;10.924;2022-08-01T09:09:29;4.00;;;2.07;;
8421;SDS011;4248;48.196;10.924;2022-08-01T09:11:55;3.77;;;2.60;;
8421;SDS011;4248;48.196;10.924;2022-08-01T09:14:21;5.93;;;2.67;;
8421;SDS011;4248;48.196;10.924;2022-08-01T09:16:59;4.90;;;2.53;;
8421;SDS011;4248;48.196;10.924;2022-08-01T09:22:06;3.77;;;2.53;;
8421;SDS011;4248;48.196;10.924;2022-08-01T09:24:36;5.60;;;2.50;;
8421;SDS011;4248;48.196;10.924;2022-08-01T09:27:17;3.97;;;2.67;;
8421;SDS011;4248;48.196;10.924;2022-08-01T09:29:48;4.20;;;2.43;;
8421;SDS011;4248;48.196;10.924;2022-08-01T09:32:15;7.20;;;2.67;;
8421;SDS011;4248;48.196;10.924;2022-08-01T09:34:41;13.70;;;2.80;;
8421;SDS011;4248;48.196;10.924;2022-08-01T09:37:08;5.87;;;2.43;;
8421;SDS011;4248;48.196;10.924;2022-08-01T09:39:37;2.77;;;1.80;;
8421;SDS011;4248;48.196;10.924;2022-08-01T09:42:26;4.63;;;2.60;;
8421;SDS011;4248;48.196;10.924;2022-08-01T09:44:53;3.77;;;2.20;;
8421;SDS011;4248;48.196;10.924;2022-08-01T09:47:19;3.27;;;2.00;;
8421;SDS011;4248;48.196;10.924;2022-08-01T09:49:54;3.60;;;2.20;;
8421;SDS011;4248;48.196;10.924;2022-08-01T09:52:22;5.27;;;2.40;;
8421;SDS011;4248;48.196;10.924;2022-08-01T09:57:19;3.10;;;1.97;;
8421;SDS011;4248;48.196;10.924;2022-08-01T09:59:50;3.60;;;2.40;;
8421;SDS011;4248;48.196;10.924;2022-08-01T10:02:27;5.00;;;2.10;;
8421;SDS011;4248;48.196;10.924;2022-08-01T10:04:53;5.50;;;1.87;;
8421;SDS011;4248;48.196;10.924;2022-08-01T10:07:19;7.60;;;2.10;;
8421;SDS011;4248;48.196;10.924;2022-08-01T10:09:46;4.83;;;1.83;;
8421;SDS011;4248;48.196;10.924;2022-08-01T10:12:14;4.00;;;2.10;;
8421;SDS011;4248;48.196;10.924;2022-08-01T10:14:41;5.77;;;2.10;;
8421;SDS011;4248;48.196;10.924;2022-08-01T10:17:09;3.57;;;2.00;;
8421;SDS011;4248;48.196;10.924;2022-08-01T10:19:37;3.30;;;1.87;;
8421;SDS011;4248;48.196;10.924;2022-08-01T10:22:07;3.87;;;1.80;;
8421;SDS011;4248;48.196;10.924;2022-08-01T10:24:34;4.70;;;1.90;;
8421;SDS011;4248;48.196;10.924;2022-08-01T10:27:04;4.80;;;2.03;;
8421;SDS011;4248;48.196;10.924;2022-08-01T10:32:05;2.70;;;1.80;;
8421;SDS011;4248;48.196;10.924;2022-08-01T10:34:34;4.03;;;2.00;;
8421;SDS011;4248;48.196;10.924;2022-08-01T10:37:02;3.60;;;2.00;;
8421;SDS011;4248;48.196;10.924;2022-08-01T10:39:30;4.97;;;2.27;;
8421;SDS011;4248;48.196;10.924;2022-08-01T10:41:56;3.00;;;1.63;;
8421;SDS011;4248;48.196;10.924;2022-08-01T10:44:26;5.00;;;2.00;;
8421;SDS011;4248;48.196;10.924;2022-08-01T10:46:55;5.40;;;2.20;;
8421;SDS011;4248;48.196;10.924;2022-08-01T10:49:31;4.17;;;2.10;;
8421;SDS011;4248;48.196;10.924;2022-08-01T10:52:01;9.80;;;1.83;;
8421;SDS011;4248;48.196;10.924;2022-08-01T10:54:27;2.70;;;1.70;;
8421;SDS011;4248;48.196;10.924;2022-08-01T10:56:53;2.87;;;1.70;;
8421;SDS011;4248;48.196;10.924;2022-08-01T11:02:00;5.17;;;2.10;;
8421;SDS011;4248;48.196;10.924;2022-08-01T11:10:09;4.17;;;1.70;;
8421;SDS011;4248;48.196;10.924;2022-08-01T11:12:41;5.90;;;1.80;;
8421;SDS011;4248;48.196;10.924;2022-08-01T11:17:43;3.73;;;1.50;;
8421;SDS011;4248;48.196;10.924;2022-08-01T11:20:14;2.50;;;1.30;;
8421;SDS011;4248;48.196;10.924;2022-08-01T11:33:11;4.37;;;1.80;;
8421;SDS011;4248;48.196;10.924;2022-08-01T11:35:37;3.33;;;1.70;;
8421;SDS011;4248;48.196;10.924;2022-08-01T11:38:28;2.80;;;1.50;;
8421;SDS011;4248;48.196;10.924;2022-08-01T11:52:01;4.10;;;2.10;;
8421;SDS011;4248;48.196;10.924;2022-08-01T11:54:36;2.30;;;1.40;;
8421;SDS011;4248;48.196;10.924;2022-08-01T11:57:03;2.80;;;1.70;;
8421;SDS011;4248;48.196;10.924;2022-08-01T11:59:54;2.40;;;1.40;;
8421;SDS011;4248;48.196;10.924;2022-08-01T12:02:22;3.13;;;1.70;;
8421;SDS011;4248;48.196;10.924;2022-08-01T12:04:51;3.90;;;1.87;;
8421;SDS011;4248;48.196;10.924;2022-08-01T12:07:25;4.30;;;2.10;;
8421;SDS011;4248;48.196;10.924;2022-08-01T12:10:08;2.90;;;1.90;;
8421;SDS011;4248;48.196;10.924;2022-08-01T12:12:42;6.90;;;2.07;;
8421;SDS011;4248;48.196;10.924;2022-08-01T12:15:15;5.00;;;1.90;;
8421;SDS011;4248;48.196;10.924;2022-08-01T12:17:44;3.27;;;1.60;;
8421;SDS011;4248;48.196;10.924;2022-08-01T12:20:13;3.70;;;1.63;;
8421;SDS011;4248;48.196;10.924;2022-08-01T12:22:40;5.10;;;1.90;;
8421;SDS011;4248;48.196;10.924;2022-08-01T12:25:07;2.90;;;1.50;;
8421;SDS011;4248;48.196;10.924;2022-08-01T12:27:34;9.67;;;1.50;;
8421;SDS011;4248;48.196;10.924;2022-08-01T12:30:00;14.37;;;2.03;;
8421;SDS011;4248;48.196;10.924;2022-08-01T12:32:30;3.80;;;1.67;;
8421;SDS011;4248;48.196;10.924;2022-08-01T12:35:08;4.30;;;1.47;;
8421;SDS011;4248;48.196;10.924;2022-08-01T12:37:45;3.10;;;1.83;;
8421;SDS011;4248;48.196;10.924;2022-08-01T12:42:45;3.57;;;2.00;;
8421;SDS011;4248;48.196;10.924;2022-08-01T12:45:14;3.70;;;1.70;;
8421;SDS011;4248;48.196;10.924;2022-08-01T12:47:42;5.07;;;1.70;;
8421;SDS011;4248;48.196;10.924;2022-08-01T12:50:15;4.90;;;1.63;;
8421;SDS011;4248;48.196;10.924;2022-08-01T12:52:53;5.60;;;1.50;;
8421;SDS011;4248;48.196;10.924;2022-08-01T12:55:19;14.53;;;2.23;;
8421;SDS011;4248;48.196;10.924;2022-08-01T12:57:48;3.30;;;1.87;;
8421;SDS011;4248;48.196;10.924;2022-08-01T13:02:44;7.20;;;2.67;;
8421;SDS011;4248;48.196;10.924;2022-08-01T13:05:11;6.73;;;2.57;;
8421;SDS011;4248;48.196;10.924;2022-08-01T13:07:39;9.47;;;2.60;;
8421;SDS011;4248;48.196;10.924;2022-08-01T13:10:09;4.43;;;1.90;;
8421;SDS011;4248;48.196;10.924;2022-08-01T13:12:36;6.60;;;2.10;;
8421;SDS011;4248;48.196;10.924;2022-08-01T13:15:22;4.90;;;2.40;;
8421;SDS011;4248;48.196;10.924;2022-08-01T13:17:53;6.10;;;2.47;;
8421;SDS011;4248;48.196;10.924;2022-08-01T13:20:23;3.57;;;2.13;;
8421;SDS011;4248;48.196;10.924;2022-08-01T13:22:49;4.03;;;2.00;;
8421;SDS011;4248;48.196;10.924;2022-08-01T13:25:15;7.90;;;2.57;;
8421;SDS011;4248;48.196;10.924;2022-08-01T13:27:41;5.17;;;2.67;;
8421;SDS011;4248;48.196;10.924;2022-08-01T13:30:25;8.77;;;2.20;;
8421;SDS011;4248;48.196;10.924;2022-08-01T13:33:00;6.77;;;2.90;;
8421;SDS011;4248;48.196;10.924;2022-08-01T13:35:26;5.00;;;2.53;;
8421;SDS011;4248;48.196;10.924;2022-08-01T13:37:52;3.77;;;2.40;;
8421;SDS011;4248;48.196;10.924;2022-08-01T13:40:25;7.37;;;2.53;;
8421;SDS011;4248;48.196;10.924;2022-08-01T13:42:52;4.20;;;2.23;;
8421;SDS011;4248;48.196;10.924;2022-08-01T13:45:20;2.90;;;1.90;;
8421;SDS011;4248;48.196;10.924;2022-08-01T13:47:46;6.25;;;2.58;;
8421;SDS011;4248;48.196;10.924;2022-08-01T13:50:11;3.73;;;2.13;;
8421;SDS011;4248;48.196;10.924;2022-08-01T13:52:37;3.73;;;2.50;;
8421;SDS011;4248;48.196;10.924;2022-08-01T13:55:03;4.87;;;2.63;;
8421;SDS011;4248;48.196;10.924;2022-08-01T13:57:28;4.30;;;2.43;;
8421;SDS011;4248;48.196;10.924;2022-08-01T13:59:54;4.73;;;2.43;;
8421;SDS011;4248;48.196;10.924;2022-08-01T14:02:20;4.90;;;2.80;;
8421;SDS011;4248;48.196;10.924;2022-08-01T14:04:46;8.73;;;2.30;;
8421;SDS011;4248;48.196;10.924;2022-08-01T14:07:12;5.90;;;2.80;;
8421;SDS011;4248;48.196;10.924;2022-08-01T14:09:38;3.07;;;1.93;;
8421;SDS011;4248;48.196;10.924;2022-08-01T14:12:04;4.00;;;2.33;;
8421;SDS011;4248;48.196;10.924;2022-08-01T14:14:29;4.33;;;2.10;;
8421;SDS011;4248;48.196;10.924;2022-08-01T14:16:55;6.00;;;2.47;;
8421;SDS011;4248;48.196;10.924;2022-08-01T14:19:21;3.50;;;1.90;;
8421;SDS011;4248;48.196;10.924;2022-08-01T14:21:47;3.93;;;2.13;;
8421;SDS011;4248;48.196;10.924;2022-08-01T14:24:12;4.60;;;1.90;;
8421;SDS011;4248;48.196;10.924;2022-08-01T14:26:38;3.60;;;1.90;;
8421;SDS011;4248;48.196;10.924;2022-08-01T14:29:04;5.27;;;2.20;;
8421;SDS011;4248;48.196;10.924;2022-08-01T14:31:29;4.20;;;2.40;;
8421;SDS011;4248;48.196;10.924;2022-08-01T14:33:55;3.87;;;2.10;;
8421;SDS011;4248;48.196;10.924;2022-08-01T14:36:20;2.93;;;1.83;;
8421;SDS011;4248;48.196;10.924;2022-08-01T14:38:46;3.43;;;2.03;;
8421;SDS011;4248;48.196;10.924;2022-08-01T14:41:13;3.33;;;1.67;;
8421;SDS011;4248;48.196;10.924;2022-08-01T14:43:41;2.77;;;1.67;;
8421;SDS011;4248;48.196;10.924;2022-08-01T14:46:07;3.33;;;1.47;;
8421;SDS011;4248;48.196;10.924;2022-08-01T14:48:35;5.53;;;1.73;;
8421;SDS011;4248;48.196;10.924;2022-08-01T14:51:01;4.03;;;1.83;;
8421;SDS011;4248;48.196;10.924;2022-08-01T14:53:27;7.00;;;2.20;;
8421;SDS011;4248;48.196;10.924;2022-08-01T14:55:53;3.20;;;1.90;;
8421;SDS011;4248;48.196;10.924;2022-08-01T14:58:19;3.80;;;1.80;;
8421;SDS011;4248;48.196;10.924;2022-08-01T15:00:44;4.03;;;1.60;;
8421;SDS011;4248;48.196;10.924;2022-08-01T15:03:10;8.27;;;1.60;;
8421;SDS011;4248;48.196;10.924;2022-08-01T15:05:36;2.20;;;1.20;;
8421;SDS011;4248;48.196;10.924;2022-08-01T15:08:02;3.40;;;1.60;;
8421;SDS011;4248;48.196;10.924;2022-08-01T15:10:28;3.50;;;1.40;;
8421;SDS011;4248;48.196;10.924;2022-08-01T15:12:53;2.83;;;1.33;;
8421;SDS011;4248;48.196;10.924;2022-08-01T15:15:20;3.10;;;1.60;;
8421;SDS011;4248;48.196;10.924;2022-08-01T15:17:46;2.50;;;1.30;;
8421;SDS011;4248;48.196;10.924;2022-08-01T15:20:11;3.37;;;1.57;;
8421;SDS011;4248;48.196;10.924;2022-08-01T15:22:37;3.73;;;1.53;;
8421;SDS011;4248;48.196;10.924;2022-08-01T15:25:03;4.13;;;1.43;;
8421;SDS011;4248;48.196;10.924;2022-08-01T15:27:29;3.47;;;1.60;;
8421;SDS011;4248;48.196;10.924;2022-08-01T15:29:55;3.27;;;1.57;;
8421;SDS011;4248;48.196;10.924;2022-08-01T15:32:21;3.47;;;1.47;;
8421;SDS011;4248;48.196;10.924;2022-08-01T15:34:47;2.90;;;1.60;;
8421;SDS011;4248;48.196;10.924;2022-08-01T15:37:13;3.53;;;1.80;;
8421;SDS011;4248;48.196;10.924;2022-08-01T15:39:39;3.27;;;1.60;;
8421;SDS011;4248;48.196;10.924;2022-08-01T15:42:08;6.27;;;3.00;;
8421;SDS011;4248;48.196;10.924;2022-08-01T15:44:35;8.70;;;3.00;;
8421;SDS011;4248;48.196;10.924;2022-08-01T15:47:01;8.00;;;2.00;;
8421;SDS011;4248;48.196;10.924;2022-08-01T15:49:28;7.20;;;2.57;;
8421;SDS011;4248;48.196;10.924;2022-08-01T15:51:54;4.63;;;2.00;;
8421;SDS011;4248;48.196;10.924;2022-08-01T15:54:19;3.13;;;1.90;;
8421;SDS011;4248;48.196;10.924;2022-08-01T15:56:45;3.40;;;1.90;;
8421;SDS011;4248;48.196;10.924;2022-08-01T15:59:11;3.30;;;1.83;;